WetterOnline ( https://www.wetteronline.de )

Wetter aktuell Stuttgart

Aktuelles Wetter: Schnarrenberg/Stuttgart (315m)

6-stündlich | Neueste Meldungen
Ortszeit Temperatur Wetter
Fr, 21.02. 13:00 7.4° C leicht bewölkt
Fr, 21.02. 7:00 3.6° C wolkig
Fr, 21.02. 1:00 7.4° C Regen
Do, 20.02. 19:00 9.5° C bedeckt
Do, 20.02. 13:00 9.0° C bedeckt
Do, 20.02. 7:00 4.1° C bedeckt
Do, 20.02. 1:00 3.8° C bedeckt
Mi, 19.02. 19:00 4.6° C leicht bewölkt
Ortszeit Temperatur Wetter
Fr, 21.02. 14:00 7.9° C fast wolkenlos
Fr, 21.02. 13:50 7.9° C fast wolkenlos
Fr, 21.02. 13:40 8.0° C leicht bewölkt
Fr, 21.02. 13:30 7.7° C wolkig
Fr, 21.02. 13:20 7.7° C wolkig
Fr, 21.02. 13:10 7.5° C wolkig
Fr, 21.02. 13:00 7.4° C leicht bewölkt
Fr, 21.02. 12:30 7.2° C leicht bewölkt
Fr, 21.02. 12:00 7.2° C wolkenlos
Fr, 21.02. 11:30 6.5° C fast wolkenlos
Fr, 21.02. 11:00 5.7° C leicht bewölkt
Ortszeit Relative Feuchte Sichtweite
Fr, 21.02. 13:00 44% 65 km
Fr, 21.02. 7:00 71% 60 km
Fr, 21.02. 1:00 79% >70 km
Do, 20.02. 19:00 59% 60 km
Do, 20.02. 13:00 61% 65 km
Do, 20.02. 7:00 76% 65 km
Do, 20.02. 1:00 69% 55 km
Mi, 19.02. 19:00 65% 60 km
Ortszeit Relative Feuchte Sichtweite
Fr, 21.02. 14:00 43% >70 km
Fr, 21.02. 13:50 43% -
Fr, 21.02. 13:40 43% -
Fr, 21.02. 13:30 44% 65 km
Fr, 21.02. 13:20 44% -
Fr, 21.02. 13:10 44% -
Fr, 21.02. 13:00 44% 65 km
Fr, 21.02. 12:30 44% 55 km
Fr, 21.02. 12:00 47% 65 km
Fr, 21.02. 11:30 49% 45 km
Fr, 21.02. 11:00 55% 60 km
Ortszeit Niederschlagsmenge Niederschlagsart
Fr, 21.02. 13:00 0.0 l/m2 in 6 Std. -
Fr, 21.02. 7:00 0.2 l/m2 in 12 Std. -
Fr, 21.02. 1:00 0.2 l/m2 in 6 Std. Regen
Do, 20.02. 19:00 0.0 l/m2 in 12 Std. -
Do, 20.02. 13:00 0.0 l/m2 in 6 Std. -
Do, 20.02. 7:00 0.1 l/m2 in 12 Std. Sprühregen
Do, 20.02. 1:00 0.0 l/m2 in 6 Std. -
Mi, 19.02. 19:00 2 l/m2 in 12 Std. Regen
Ortszeit Niederschlagsmenge Niederschlagsart
Fr, 21.02. 14:00 0.0 l/m2 in 1 Std. -
Fr, 21.02. 13:50 keine Meldung -
Fr, 21.02. 13:40 keine Meldung -
Fr, 21.02. 13:30 0.0 l/m2 in 1 Std. -
Fr, 21.02. 13:20 keine Meldung -
Fr, 21.02. 13:10 keine Meldung -
Fr, 21.02. 13:00 0.0 l/m2 in 1 Std. -
Fr, 21.02. 12:30 0.0 l/m2 in 1 Std. -
Fr, 21.02. 12:00 0.0 l/m2 in 1 Std. -
Fr, 21.02. 11:30 0.0 l/m2 in 1 Std. -
Fr, 21.02. 11:00 0.0 l/m2 in 1 Std. -
Ortszeit Stärke Spitze Richtung
km/h Bft. km/h Grad Sektor
Fr, 21.02. 13:00 22 4 43 290° W
Fr, 21.02. 7:00 17 3 70 280° W
Fr, 21.02. 1:00 36 5 58 280° W
Do, 20.02. 19:00 7 2 29 220° SW
Do, 20.02. 13:00 14 3 29 220° SW
Do, 20.02. 7:00 13 3 28 170° S
Do, 20.02. 1:00 15 3 30 230° SW
Mi, 19.02. 19:00 11 2 57 260° W
Ortszeit Stärke Spitze Richtung
km/h Bft. km/h Grad Sektor
Fr, 21.02. 14:00 22 4 36 280° W
Fr, 21.02. 13:50 22 4 - 280° W
Fr, 21.02. 13:40 22 4 - 290° W
Fr, 21.02. 13:30 20 4 35 290° W
Fr, 21.02. 13:20 20 4 - 290° W
Fr, 21.02. 13:10 19 3 - 290° W
Fr, 21.02. 13:00 22 4 36 290° W
Fr, 21.02. 12:30 22 4 36 280° W
Fr, 21.02. 12:00 18 3 32 280° W
Fr, 21.02. 11:30 20 4 31 260° W
Fr, 21.02. 11:00 22 4 44 290° W
Ortszeit Untergrenze Bedeckung Gattung
total tief tief mittel hoch
Fr, 21.02. 13:00 8700 m 8/8 0/8 - - -
Fr, 21.02. 7:00 1110 m 6/8 5/8 - - -
Fr, 21.02. 1:00 840 m 7/8 7/8 - - -
Do, 20.02. 19:00 1290 m 8/8 8/8 - - -
Do, 20.02. 13:00 1290 m 8/8 8/8 - - -
Do, 20.02. 7:00 1500 m 8/8 8/8 - - -
Do, 20.02. 1:00 1500 m 8/8 8/8 - - -
Mi, 19.02. 19:00 8100 m 4/8 0/8 - - -
Ortszeit Bedeckungsgrad in Achtel und Wolkenuntergrenze
Fr, 21.02. 14:00 1(9000m)
Fr, 21.02. 13:50 1(9000m)
Fr, 21.02. 13:40 3(9000m)
Fr, 21.02. 13:30 7(9000m)
Fr, 21.02. 13:20 7(9000m)
Fr, 21.02. 13:10 1(8400m) 3(9000m) 7(9000m)
Fr, 21.02. 13:00 6(8700m) 8(9000m) 7(9000m)
Fr, 21.02. 12:30 5(9000m)
Fr, 21.02. 12:00 keine Wolken
Fr, 21.02. 11:30 1(8400m)
Fr, 21.02. 11:00 3(7800m) 6(8700m)
Ortszeit Luftdruck NN (hPa) Tendenz (hPa in 3 Std.)
Fr, 21.02. 13:00 1031 + 0,2
Fr, 21.02. 7:00 1029 + 3,3
Fr, 21.02. 1:00 1020 + 1,0
Do, 20.02. 19:00 1019 - 0,8
Do, 20.02. 13:00 1022 - 1,5
Do, 20.02. 7:00 1024 - 0,8
Do, 20.02. 1:00 1026 - 1,0
Mi, 19.02. 19:00 1026 + 1,9
Ortszeit Luftdruck NN (hPa) Tendenz (hPa in 3 Std.)
Fr, 21.02. 14:00 1031 - 0,2
Fr, 21.02. 13:50 1031 keine Meldung
Fr, 21.02. 13:40 1031 keine Meldung
Fr, 21.02. 13:30 1031 - 0,1
Fr, 21.02. 13:20 1031 keine Meldung
Fr, 21.02. 13:10 1031 keine Meldung
Fr, 21.02. 13:00 1031 + 0,2
Fr, 21.02. 12:30 1031 + 0,3
Fr, 21.02. 12:00 1031 + 0,5
Fr, 21.02. 11:30 1031 + 0,8
Fr, 21.02. 11:00 1031 + 1,5
Ortszeit Schneehöhe (cm)
Fr, 21.02. 13:00 0
Fr, 21.02. 7:00 0
Fr, 21.02. 1:00 0
Do, 20.02. 19:00 0
Do, 20.02. 13:00 0
Do, 20.02. 7:00 0
Do, 20.02. 1:00 0
Mi, 19.02. 19:00 0
Ortszeit Schneehöhe (cm)
Fr, 21.02. 14:00 0
Fr, 21.02. 13:50 0
Fr, 21.02. 13:40 0
Fr, 21.02. 13:30 0
Fr, 21.02. 13:20 0
Fr, 21.02. 13:10 0
Fr, 21.02. 13:00 0
Fr, 21.02. 12:30 0
Fr, 21.02. 12:00 0
Fr, 21.02. 11:30 0
Fr, 21.02. 11:00 0
Link zu dieser Seite / Seite empfehlen

Das Wetter in ...